Time;durP1;ratioP1;P1;durP2;ratioP2;P2;SDS_P1;SDS_P2;PMS_P1;PMS_P2;Temp;Humidity;BMP_temperature;BMP_pressure;BME280_temperature;BME280_humidity;BME280_pressure;Samples;Min_cycle;Max_cycle;Signal;HPM_P1;HPM_P2
2022/10/25 00:01:15;;;;;;;;;;;;;;;;;;5050659;28;8816;-81
2022/10/25 00:03:41;;;;;;;;;;;;;;;;;;5050394;28;7158;-80
2022/10/25 00:06:10;;;;;;;;;;;;;;;;;;5050636;28;7013;-80
2022/10/25 00:08:36;;;;;;;;;;;;;;;;;;5050427;28;7166;-82
2022/10/25 00:11:03;;;;;;;;;;;;;;;;;;5051166;28;8410;-81
2022/10/25 00:13:28;;;;;;;;;;;;;;;;;;5050631;28;8428;-82
2022/10/25 00:15:53;;;;;;;;;;;;;;;;;;5050174;28;8364;-82
2022/10/25 00:18:19;;;;;;;;;;;;;;;;;;5050430;28;7028;-81
2022/10/25 00:20:45;;;;;;;;;;;;;;;;;;5050856;28;8719;-81
2022/10/25 00:23:11;;;;;;;;;;;;;;;;;;5050137;28;9228;-81
2022/10/25 00:25:37;;;;;;;;;;;;;;;;;;5050507;28;8427;-81
2022/10/25 00:28:02;;;;;;;;;;;;;;;;;;5050200;28;7125;-81
2022/10/25 00:30:28;;;;;;;;;;;;;;;;;;5050277;28;7138;-82
2022/10/25 00:32:53;;;;;;;;;;;;;;;;;;5051912;28;8412;-80
2022/10/25 00:35:19;;;;;;;;;;;;;;;;;;5050134;28;7144;-81
2022/10/25 00:37:44;;;;;;;;;;;;;;;;;;5050195;28;8403;-80
2022/10/25 00:40:10;;;;;;;;;;;;;;;;;;5050056;28;8458;-84
2022/10/25 00:42:35;;;;;;;;;;;;;;;;;;5038841;28;7116;-83
2022/10/25 00:45:12;;;;;;;;;;;;;;;;;;5017009;28;8375;-83
2022/10/25 00:47:48;;;;;;;;;;;;;;;;;;5016746;28;8345;-81
2022/10/25 00:50:18;;;;;;;;;;;;;;;;;;5016958;28;7343;-82
2022/10/25 00:52:46;;;;;;;;;;;;;;;;;;5016934;28;7340;-82
2022/10/25 00:55:14;;;;;;;;;;;;;;;;;;5017639;28;6900;-80
2022/10/25 00:57:45;;;;;;;;;;;;;;;;;;5033773;28;8372;-82
2022/10/25 01:00:11;;;;;;;;;;;;;;;;;;5033700;28;7208;-81
2022/10/25 01:02:36;;;;;;;;;;;;;;;;;;5033681;28;7004;-82
2022/10/25 01:05:02;;;;;;;;;;;;;;;;;;5033768;28;8457;-82
2022/10/25 01:07:27;;;;;;;;;;;;;;;;;;5037613;28;8398;-81
2022/10/25 01:09:53;;;;;;;;;;;;;;;;;;5037184;28;7162;-81
2022/10/25 01:12:18;;;;;;;;;;;;;;;;;;5037264;28;8688;-82
2022/10/25 01:14:47;;;;;;;;;;;;;;;;;;5037310;28;8426;-80
2022/10/25 01:17:13;;;;;;;;;;;;;;;;;;5036652;28;7112;-81
2022/10/25 01:20:00;;;;;;;;;;;;;;;;;;5038127;28;7012;-81
2022/10/25 01:22:37;;;;;;;;;;;;;;;;;;5036529;28;7052;-82
2022/10/25 01:25:09;;;;;;;;;;;;;;;;;;5037236;28;8366;-81
2022/10/25 01:27:53;;;;;;;;;;;;;;;;;;5037121;28;8407;-82
2022/10/25 01:30:31;;;;;;;;;;;;;;;;;;5019404;28;7104;-84
2022/10/25 01:33:00;;;;;;;;;;;;;;;;;;5036860;28;8800;-84
2022/10/25 01:35:28;;;;;;;;;;;;;;;;;;5037354;28;8476;-83
2022/10/25 01:38:13;;;;;;;;;;;;;;;;;;5036802;28;8373;-84
2022/10/25 01:40:44;;;;;;;;;;;;;;;;;;5037219;28;8865;-83
2022/10/25 01:43:21;;;;;;;;;;;;;;;;;;5036416;28;8518;-83
2022/10/25 01:45:55;;;;;;;;;;;;;;;;;;5036563;28;8429;-82
2022/10/25 01:48:25;;;;;;;;;;;;;;;;;;5036779;28;8790;-82
2022/10/25 01:50:51;;;;;;;;;;;;;;;;;;5036216;28;8545;-82
2022/10/25 01:53:17;;;;;;;;;;;;;;;;;;5036766;28;8426;-81
2022/10/25 01:55:48;;;;;;;;;;;;;;;;;;5043554;28;8419;-81
2022/10/25 01:58:31;;;;;;;;;;;;;;;;;;5039672;28;8499;-80
2022/10/25 02:01:13;;;;;;;;;;;;;;;;;;5040125;28;8794;-82
2022/10/25 02:03:49;;;;;;;;;;;;;;;;;;5039978;28;8405;-82
2022/10/25 02:06:21;;;;;;;;;;;;;;;;;;5039398;28;7193;-81
2022/10/25 02:08:53;;;;;;;;;;;;;;;;;;5056018;28;7118;-81
2022/10/25 02:11:30;;;;;;;;;;;;;;;;;;5040085;28;8498;-83
2022/10/25 02:14:15;;;;;;;;;;;;;;;;;;5039339;28;8377;-84
2022/10/25 02:16:45;;;;;;;;;;;;;;;;;;5039240;28;7166;-83
2022/10/25 02:19:15;;;;;;;;;;;;;;;;;;5039710;28;8479;-81
2022/10/25 02:21:43;;;;;;;;;;;;;;;;;;5039052;28;7145;-80
2022/10/25 02:24:15;;;;;;;;;;;;;;;;;;5039723;28;7035;-80
2022/10/25 02:26:43;;;;;;;;;;;;;;;;;;5039000;28;8351;-79
2022/10/25 02:29:11;;;;;;;;;;;;;;;;;;5039186;28;8764;-82
2022/10/25 02:31:37;;;;;;;;;;;;;;;;;;5039082;28;7336;-80
2022/10/25 02:34:03;;;;;;;;;;;;;;;;;;5039268;28;7159;-81
2022/10/25 02:36:29;;;;;;;;;;;;;;;;;;5039531;28;7019;-80
2022/10/25 02:38:56;;;;;;;;;;;;;;;;;;5038803;28;8380;-82
2022/10/25 02:41:22;;;;;;;;;;;;;;;;;;5039351;28;7158;-81
2022/10/25 02:43:48;;;;;;;;;;;;;;;;;;5038610;28;8431;-82
2022/10/25 02:46:15;;;;;;;;;;;;;;;;;;5038920;28;8439;-83
2022/10/25 02:48:41;;;;;;;;;;;;;;;;;;5038946;28;6936;-83
2022/10/25 02:51:08;;;;;;;;;;;;;;;;;;5039169;28;8458;-81
2022/10/25 02:53:34;;;;;;;;;;;;;;;;;;5038841;28;8664;-84
2022/10/25 02:56:03;;;;;;;;;;;;;;;;;;5038788;28;7146;-83
2022/10/25 02:58:30;;;;;;;;;;;;;;;;;;5055799;28;8479;-84
2022/10/25 03:00:56;;;;;;;;;;;;;;;;;;5038395;28;8428;-82
2022/10/25 03:03:22;;;;;;;;;;;;;;;;;;5038247;28;7043;-83
2022/10/25 03:05:47;;;;;;;;;;;;;;;;;;5055020;28;8296;-83
2022/10/25 03:08:13;;;;;;;;;;;;;;;;;;5054764;28;7199;-83
2022/10/25 03:10:38;;;;;;;;;;;;;;;;;;5054968;28;7149;-82
2022/10/25 03:13:04;;;;;;;;;;;;;;;;;;5054863;28;7586;-83
2022/10/25 03:15:29;;;;;;;;;;;;;;;;;;5055087;28;7218;-81
2022/10/25 03:17:54;;;;;;;;;;;;;;;;;;5055270;28;8385;-81
2022/10/25 03:20:20;;;;;;;;;;;;;;;;;;5054294;28;6999;-82
2022/10/25 03:22:45;;;;;;;;;;;;;;;;;;5037470;28;8595;-82
2022/10/25 03:25:11;;;;;;;;;;;;;;;;;;5053289;28;8304;-81
2022/10/25 03:27:37;;;;;;;;;;;;;;;;;;5037010;28;8466;-81
2022/10/25 03:30:02;;;;;;;;;;;;;;;;;;5037253;28;7003;-80
2022/10/25 03:32:28;;;;;;;;;;;;;;;;;;5037307;28;7241;-82
2022/10/25 03:34:53;;;;;;;;;;;;;;;;;;5037648;28;8419;-80
2022/10/25 03:37:19;;;;;;;;;;;;;;;;;;5053728;28;8407;-83
2022/10/25 03:39:44;;;;;;;;;;;;;;;;;;5037571;28;8742;-83
2022/10/25 03:42:10;;;;;;;;;;;;;;;;;;5037173;28;7608;-83
2022/10/25 03:44:35;;;;;;;;;;;;;;;;;;5053815;28;7298;-81
2022/10/25 03:47:00;;;;;;;;;;;;;;;;;;5053722;28;8665;-83
2022/10/25 03:49:26;;;;;;;;;;;;;;;;;;5039061;28;8625;-83
2022/10/25 03:51:51;;;;;;;;;;;;;;;;;;5037202;28;8266;-82
2022/10/25 03:54:17;;;;;;;;;;;;;;;;;;5053901;28;8421;-81
2022/10/25 03:56:43;;;;;;;;;;;;;;;;;;5021616;28;8371;-78
2022/10/25 03:59:09;;;;;;;;;;;;;;;;;;5017358;28;6870;-79
2022/10/25 04:01:34;;;;;;;;;;;;;;;;;;5025199;28;8375;-83
2022/10/25 04:04:00;;;;;;;;;;;;;;;;;;5017337;28;8425;-83
2022/10/25 04:06:25;;;;;;;;;;;;;;;;;;5024572;28;8866;-82
2022/10/25 04:08:50;;;;;;;;;;;;;;;;;;5025506;28;8592;-82
2022/10/25 04:11:16;;;;;;;;;;;;;;;;;;5033885;28;8488;-82
2022/10/25 04:13:41;;;;;;;;;;;;;;;;;;5034221;28;8498;-81
2022/10/25 04:16:07;;;;;;;;;;;;;;;;;;5033585;28;8514;-80
2022/10/25 04:18:32;;;;;;;;;;;;;;;;;;5034119;28;8710;-79
2022/10/25 04:20:58;;;;;;;;;;;;;;;;;;5033576;28;8430;-79
2022/10/25 04:23:23;;;;;;;;;;;;;;;;;;5033881;28;7010;-80
2022/10/25 04:25:49;;;;;;;;;;;;;;;;;;5033771;28;7294;-80
2022/10/25 04:28:15;;;;;;;;;;;;;;;;;;5033758;28;7270;-80
2022/10/25 04:30:40;;;;;;;;;;;;;;;;;;5033488;28;8396;-82
2022/10/25 04:33:06;;;;;;;;;;;;;;;;;;5033654;28;8466;-81
2022/10/25 04:35:31;;;;;;;;;;;;;;;;;;5033699;28;6976;-79
2022/10/25 04:37:57;;;;;;;;;;;;;;;;;;5033859;28;8434;-81
2022/10/25 04:40:23;;;;;;;;;;;;;;;;;;5033555;28;8366;-81
2022/10/25 04:42:48;;;;;;;;;;;;;;;;;;5033129;28;8387;-79
2022/10/25 04:45:14;;;;;;;;;;;;;;;;;;5032685;28;8430;-81
2022/10/25 04:47:39;;;;;;;;;;;;;;;;;;5031460;28;7147;-83
2022/10/25 04:50:05;;;;;;;;;;;;;;;;;;5031989;28;8324;-81
2022/10/25 04:52:31;;;;;;;;;;;;;;;;;;5032296;28;8450;-80
2022/10/25 04:54:57;;;;;;;;;;;;;;;;;;5032364;28;8361;-81
2022/10/25 04:57:23;;;;;;;;;;;;;;;;;;5033603;28;8543;-82
2022/10/25 04:59:48;;;;;;;;;;;;;;;;;;5033301;28;7031;-79
2022/10/25 05:02:14;;;;;;;;;;;;;;;;;;5033525;28;8609;-82
2022/10/25 05:04:41;;;;;;;;;;;;;;;;;;5033763;28;8522;-81
2022/10/25 05:07:06;;;;;;;;;;;;;;;;;;5033419;28;6821;-81
2022/10/25 05:09:32;;;;;;;;;;;;;;;;;;5033891;28;8377;-81
2022/10/25 05:11:57;;;;;;;;;;;;;;;;;;5033411;28;8334;-79
2022/10/25 05:14:23;;;;;;;;;;;;;;;;;;5033722;28;8631;-82
2022/10/25 05:16:48;;;;;;;;;;;;;;;;;;5029778;28;6788;-81
2022/10/25 05:19:14;;;;;;;;;;;;;;;;;;5015356;28;8731;-83
2022/10/25 05:21:39;;;;;;;;;;;;;;;;;;5023611;28;7104;-80
2022/10/25 05:24:05;;;;;;;;;;;;;;;;;;5015587;28;7002;-81
2022/10/25 05:26:31;;;;;;;;;;;;;;;;;;5023762;28;7025;-81
2022/10/25 05:28:57;;;;;;;;;;;;;;;;;;5015470;28;7546;-80
2022/10/25 05:31:24;;;;;;;;;;;;;;;;;;5023634;28;8628;-81
2022/10/25 05:33:51;;;;;;;;;;;;;;;;;;5023911;28;7256;-80
2022/10/25 05:36:18;;;;;;;;;;;;;;;;;;5012851;28;8748;-82
2022/10/25 05:38:44;;;;;;;;;;;;;;;;;;5013042;28;7251;-82
2022/10/25 05:41:10;;;;;;;;;;;;;;;;;;5016444;28;8703;-83
2022/10/25 05:43:36;;;;;;;;;;;;;;;;;;5024577;28;8339;-83
2022/10/25 05:46:13;;;;;;;;;;;;;;;;;;5033314;28;8469;-82
2022/10/25 05:48:39;;;;;;;;;;;;;;;;;;5033372;28;8440;-80
2022/10/25 05:51:15;;;;;;;;;;;;;;;;;;5033374;28;8274;-82
2022/10/25 05:53:42;;;;;;;;;;;;;;;;;;5036090;28;8521;-81
2022/10/25 05:56:08;;;;;;;;;;;;;;;;;;5047574;28;8649;-80
2022/10/25 05:58:33;;;;;;;;;;;;;;;;;;5039785;28;8424;-81
2022/10/25 06:00:59;;;;;;;;;;;;;;;;;;5040038;28;8624;-81
2022/10/25 06:03:25;;;;;;;;;;;;;;;;;;5040034;28;7064;-82
2022/10/25 06:05:51;;;;;;;;;;;;;;;;;;5039345;28;8395;-81
2022/10/25 06:08:16;;;;;;;;;;;;;;;;;;5039474;28;8466;-82
2022/10/25 06:10:42;;;;;;;;;;;;;;;;;;5039358;28;8443;-80
2022/10/25 06:13:08;;;;;;;;;;;;;;;;;;5040009;28;7389;-83
2022/10/25 06:15:37;;;;;;;;;;;;;;;;;;5037272;28;8383;-84
2022/10/25 06:18:03;;;;;;;;;;;;;;;;;;5037334;28;7238;-80
2022/10/25 06:20:28;;;;;;;;;;;;;;;;;;5037754;28;7045;-81
2022/10/25 06:22:54;;;;;;;;;;;;;;;;;;5037775;28;8394;-80
2022/10/25 06:25:19;;;;;;;;;;;;;;;;;;5037823;28;8419;-82
2022/10/25 06:27:45;;;;;;;;;;;;;;;;;;5039372;28;8373;-82
2022/10/25 06:30:10;;;;;;;;;;;;;;;;;;5039161;28;8846;-83
2022/10/25 06:32:37;;;;;;;;;;;;;;;;;;5038786;28;7122;-83
2022/10/25 06:35:03;;;;;;;;;;;;;;;;;;5038962;28;7187;-84
2022/10/25 06:37:29;;;;;;;;;;;;;;;;;;5038825;28;8375;-82
2022/10/25 06:39:54;;;;;;;;;;;;;;;;;;5039059;28;8376;-84
2022/10/25 06:42:20;;;;;;;;;;;;;;;;;;5038877;28;8424;-84
2022/10/25 06:44:45;;;;;;;;;;;;;;;;;;5039326;28;8645;-83
2022/10/25 06:47:10;;;;;;;;;;;;;;;;;;5038904;28;8396;-83
2022/10/25 06:49:36;;;;;;;;;;;;;;;;;;5039099;28;8270;-83
2022/10/25 06:52:02;;;;;;;;;;;;;;;;;;5039033;28;8371;-83
2022/10/25 06:54:27;;;;;;;;;;;;;;;;;;5038575;28;7142;-83
2022/10/25 06:56:53;;;;;;;;;;;;;;;;;;5038311;28;7043;-84
2022/10/25 06:59:19;;;;;;;;;;;;;;;;;;5039195;28;9301;-82
2022/10/25 07:01:45;;;;;;;;;;;;;;;;;;5038288;28;6994;-84
2022/10/25 07:04:11;;;;;;;;;;;;;;;;;;5038815;28;7376;-83
2022/10/25 07:06:37;;;;;;;;;;;;;;;;;;5039027;28;8400;-83
2022/10/25 07:09:05;;;;;;;;;;;;;;;;;;5038707;28;7162;-83
2022/10/25 07:11:31;;;;;;;;;;;;;;;;;;5038875;28;7158;-82
2022/10/25 07:13:58;;;;;;;;;;;;;;;;;;5038063;28;8612;-84
2022/10/25 07:16:25;;;;;;;;;;;;;;;;;;5038567;28;9642;-83
2022/10/25 07:18:51;;;;;;;;;;;;;;;;;;5038519;28;7181;-83
2022/10/25 07:21:19;;;;;;;;;;;;;;;;;;5038480;28;7243;-81
2022/10/25 07:23:45;;;;;;;;;;;;;;;;;;5037893;28;7011;-82
2022/10/25 07:26:16;;;;;;;;;;;;;;;;;;5037850;28;8394;-83
2022/10/25 07:28:43;;;;;;;;;;;;;;;;;;5037979;28;7068;-84
2022/10/25 07:31:13;;;;;;;;;;;;;;;;;;5038140;28;8397;-83
2022/10/25 07:33:39;;;;;;;;;;;;;;;;;;5037999;28;8422;-83
2022/10/25 07:36:04;;;;;;;;;;;;;;;;;;5038015;28;8459;-81
2022/10/25 07:38:30;;;;;;;;;;;;;;;;;;5037917;28;8647;-83
2022/10/25 07:40:57;;;;;;;;;;;;;;;;;;5037711;28;8453;-85
2022/10/25 07:43:24;;;;;;;;;;;;;;;;;;5037708;28;7171;-82
2022/10/25 07:45:49;;;;;;;;;;;;;;;;;;5036968;28;7003;-82
2022/10/25 07:48:15;;;;;;;;;;;;;;;;;;5037324;28;7159;-85
2022/10/25 07:50:41;;;;;;;;;;;;;;;;;;5042408;28;7167;-84
2022/10/25 07:53:06;;;;;;;;;;;;;;;;;;5008065;28;8340;-85
2022/10/25 07:55:32;;;;;;;;;;;;;;;;;;5013698;28;7331;-84
2022/10/25 07:58:01;;;;;;;;;;;;;;;;;;5014190;28;8551;-84
2022/10/25 08:00:27;;;;;;;;;;;;;;;;;;4998103;28;8414;-84
2022/10/25 08:02:53;;;;;;;;;;;;;;;;;;4998098;28;8360;-81
2022/10/25 08:05:19;;;;;;;;;;;;;;;;;;4997413;28;8303;-82
2022/10/25 08:07:44;;;;;;;;;;;;;;;;;;5014715;28;7322;-83
2022/10/25 08:10:10;;;;;;;;;;;;;;;;;;5012528;28;7235;-81
2022/10/25 08:12:35;;;;;;;;;;;;;;;;;;5013091;28;7103;-82
2022/10/25 08:15:01;;;;;;;;;;;;;;;;;;5004496;28;8864;-84
2022/10/25 08:17:27;;;;;;;;;;;;;;;;;;5034537;28;6980;-83
2022/10/25 08:19:52;;;;;;;;;;;;;;;;;;5013398;28;6992;-82
2022/10/25 08:22:17;;;;;;;;;;;;;;;;;;4997431;28;8388;-79
2022/10/25 08:24:43;;;;;;;;;;;;;;;;;;5002269;28;7492;-83
2022/10/25 08:27:08;;;;;;;;;;;;;;;;;;5013595;28;8398;-84
2022/10/25 08:29:34;;;;;;;;;;;;;;;;;;5013387;28;8630;-82
2022/10/25 08:31:59;;;;;;;;;;;;;;;;;;5013109;28;7140;-83
2022/10/25 08:34:25;;;;;;;;;;;;;;;;;;4998055;28;7222;-81
2022/10/25 08:36:50;;;;;;;;;;;;;;;;;;4996067;28;8642;-82
2022/10/25 08:39:16;;;;;;;;;;;;;;;;;;5012076;28;7045;-83
2022/10/25 08:41:48;;;;;;;;;;;;;;;;;;4996421;28;7164;-82
2022/10/25 08:44:20;;;;;;;;;;;;;;;;;;4997705;28;7183;-82
2022/10/25 08:46:56;;;;;;;;;;;;;;;;;;4998426;28;8422;-83
2022/10/25 08:49:25;;;;;;;;;;;;;;;;;;4997902;28;7182;-83
2022/10/25 08:51:53;;;;;;;;;;;;;;;;;;5013855;28;8440;-83
2022/10/25 08:54:30;;;;;;;;;;;;;;;;;;4997378;28;9009;-83
2022/10/25 08:57:03;;;;;;;;;;;;;;;;;;4997114;28;6819;-82
2022/10/25 08:59:34;;;;;;;;;;;;;;;;;;4997157;28;8398;-84
2022/10/25 09:02:00;;;;;;;;;;;;;;;;;;4997145;28;8424;-84
2022/10/25 09:04:25;;;;;;;;;;;;;;;;;;4997026;28;8388;-82
2022/10/25 09:06:51;;;;;;;;;;;;;;;;;;4997085;28;7380;-82
2022/10/25 09:09:27;;;;;;;;;;;;;;;;;;5013953;28;8437;-82
2022/10/25 09:12:03;;;;;;;;;;;;;;;;;;4999368;28;8404;-77
2022/10/25 09:14:43;;;;;;;;;;;;;;;;;;5014235;28;6820;-81
2022/10/25 09:17:17;;;;;;;;;;;;;;;;;;5013419;28;8402;-82
2022/10/25 09:19:51;;;;;;;;;;;;;;;;;;4997070;28;7180;-83
2022/10/25 09:22:23;;;;;;;;;;;;;;;;;;4997319;28;8554;-84
2022/10/25 09:24:51;;;;;;;;;;;;;;;;;;5013470;28;8784;-84
2022/10/25 09:27:20;;;;;;;;;;;;;;;;;;5015514;28;8388;-82
2022/10/25 09:29:50;;;;;;;;;;;;;;;;;;5017627;28;8420;-84
2022/10/25 09:32:28;;;;;;;;;;;;;;;;;;5001031;28;8392;-82
2022/10/25 09:34:54;;;;;;;;;;;;;;;;;;5001264;28;7159;-82
2022/10/25 09:37:26;;;;;;;;;;;;;;;;;;5001557;28;8637;-81
2022/10/25 09:39:55;;;;;;;;;;;;;;;;;;5001404;28;7037;-81
2022/10/25 09:42:31;;;;;;;;;;;;;;;;;;5004400;28;8589;-82
2022/10/25 09:45:05;;;;;;;;;;;;;;;;;;5020249;28;8731;-82
2022/10/25 09:47:30;;;;;;;;;;;;;;;;;;5019488;28;8810;-82
2022/10/25 09:50:02;;;;;;;;;;;;;;;;;;5014659;28;8904;-83
2022/10/25 09:52:35;;;;;;;;;;;;;;;;;;5020054;28;8935;-83
2022/10/25 09:55:33;;;;;;;;;;;;;;;;;;5006906;28;8433;-82
2022/10/25 09:58:01;;;;;;;;;;;;;;;;;;4993375;28;8490;-84
2022/10/25 10:00:27;;;;;;;;;;;;;;;;;;5019810;28;7153;-83
2022/10/25 10:02:52;;;;;;;;;;;;;;;;;;5020032;28;8392;-81
2022/10/25 10:05:19;;;;;;;;;;;;;;;;;;5019835;28;8379;-84
2022/10/25 10:07:47;;;;;;;;;;;;;;;;;;5019920;28;7057;-81
2022/10/25 10:10:16;;;;;;;;;;;;;;;;;;5019427;28;8521;-86
2022/10/25 10:12:42;;;;;;;;;;;;;;;;;;5019980;28;7238;-85
2022/10/25 10:15:14;;;;;;;;;;;;;;;;;;5035896;28;8354;-81
2022/10/25 10:17:40;;;;;;;;;;;;;;;;;;5019728;28;9080;-84
2022/10/25 10:20:08;;;;;;;;;;;;;;;;;;5019815;28;8390;-84
2022/10/25 10:22:36;;;;;;;;;;;;;;;;;;5019589;28;7162;-84
2022/10/25 10:25:02;;;;;;;;;;;;;;;;;;5020002;28;7029;-84
2022/10/25 10:27:28;;;;;;;;;;;;;;;;;;5019311;28;7279;-84
2022/10/25 10:29:58;;;;;;;;;;;;;;;;;;5019809;28;7124;-83
2022/10/25 10:32:32;;;;;;;;;;;;;;;;;;5019990;28;7151;-84
2022/10/25 10:35:00;;;;;;;;;;;;;;;;;;5019571;28;8403;-85
2022/10/25 10:37:27;;;;;;;;;;;;;;;;;;5018867;28;8405;-84
2022/10/25 10:39:55;;;;;;;;;;;;;;;;;;5019079;28;8707;-84
2022/10/25 10:42:23;;;;;;;;;;;;;;;;;;5019195;28;7158;-84
2022/10/25 10:45:00;;;;;;;;;;;;;;;;;;5035377;28;8398;-84
2022/10/25 10:47:31;;;;;;;;;;;;;;;;;;5019716;28;7107;-82
2022/10/25 10:49:57;;;;;;;;;;;;;;;;;;5019226;28;8594;-82
2022/10/25 10:52:29;;;;;;;;;;;;;;;;;;5018800;28;8703;-83
2022/10/25 10:54:56;;;;;;;;;;;;;;;;;;5019194;28;7158;-83
2022/10/25 10:57:33;;;;;;;;;;;;;;;;;;4999127;28;8425;-82
2022/10/25 11:00:00;;;;;;;;;;;;;;;;;;4999884;28;7417;-84
2022/10/25 11:02:35;;;;;;;;;;;;;;;;;;4999056;28;8374;-82
2022/10/25 11:05:01;;;;;;;;;;;;;;;;;;4998993;28;8410;-83
2022/10/25 11:07:34;;;;;;;;;;;;;;;;;;4999063;28;8404;-82
2022/10/25 11:10:15;;;;;;;;;;;;;;;;;;4999339;28;7065;-84
2022/10/25 11:12:41;;;;;;;;;;;;;;;;;;4999023;28;8409;-84
2022/10/25 11:15:13;;;;;;;;;;;;;;;;;;4999338;28;8676;-84
2022/10/25 11:18:05;;;;;;;;;;;;;;;;;;4999562;28;9008;-84
2022/10/25 11:20:46;;;;;;;;;;;;;;;;;;4994011;28;8460;-84
2022/10/25 11:23:20;;;;;;;;;;;;;;;;;;4998950;28;8437;-84
2022/10/25 11:25:55;;;;;;;;;;;;;;;;;;4998552;28;8803;-82
2022/10/25 11:28:33;;;;;;;;;;;;;;;;;;4998501;28;7166;-83
2022/10/25 11:31:17;;;;;;;;;;;;;;;;;;4998989;28;8390;-83
2022/10/25 11:34:04;;;;;;;;;;;;;;;;;;4998463;28;7040;-83
2022/10/25 11:36:29;;;;;;;;;;;;;;;;;;4998276;28;8501;-83
2022/10/25 11:39:04;;;;;;;;;;;;;;;;;;4998315;28;9246;-83
2022/10/25 11:41:36;;;;;;;;;;;;;;;;;;4998936;28;7062;-82
2022/10/25 11:44:14;;;;;;;;;;;;;;;;;;4998394;28;8470;-83
2022/10/25 11:46:45;;;;;;;;;;;;;;;;;;4998254;28;8438;-84
2022/10/25 11:49:30;;;;;;;;;;;;;;;;;;4998246;28;7010;-83
2022/10/25 11:51:55;;;;;;;;;;;;;;;;;;4998369;28;8459;-83
2022/10/25 11:54:24;;;;;;;;;;;;;;;;;;5014645;28;8700;-84
2022/10/25 11:56:49;;;;;;;;;;;;;;;;;;5013635;28;7057;-82
2022/10/25 11:59:35;;;;;;;;;;;;;;;;;;5034067;28;8719;-83
2022/10/25 12:02:10;;;;;;;;;;;;;;;;;;5016503;28;7185;-82
2022/10/25 12:04:52;;;;;;;;;;;;;;;;;;5033749;28;7180;-83
2022/10/25 12:07:23;;;;;;;;;;;;;;;;;;5034039;28;7086;-83
2022/10/25 12:09:52;;;;;;;;;;;;;;;;;;5017570;28;7650;-83
2022/10/25 12:12:23;;;;;;;;;;;;;;;;;;5033858;28;8494;-83
2022/10/25 12:14:52;;;;;;;;;;;;;;;;;;5017323;28;7179;-82
2022/10/25 12:17:23;;;;;;;;;;;;;;;;;;5017471;28;7039;-83
2022/10/25 12:19:51;;;;;;;;;;;;;;;;;;5017619;28;8435;-84
2022/10/25 12:22:23;;;;;;;;;;;;;;;;;;5016159;28;7121;-83
2022/10/25 12:24:55;;;;;;;;;;;;;;;;;;5016933;28;7134;-83
2022/10/25 12:27:23;;;;;;;;;;;;;;;;;;5017292;28;8568;-81
2022/10/25 12:29:53;;;;;;;;;;;;;;;;;;5016945;28;8411;-83
2022/10/25 12:32:22;;;;;;;;;;;;;;;;;;5017296;28;7065;-83
2022/10/25 12:34:52;;;;;;;;;;;;;;;;;;5016974;28;7358;-83
2022/10/25 12:37:37;;;;;;;;;;;;;;;;;;5017724;28;8732;-82
2022/10/25 12:40:03;;;;;;;;;;;;;;;;;;5035568;28;7058;-82
2022/10/25 12:42:49;;;;;;;;;;;;;;;;;;5038629;28;7106;-83
2022/10/25 12:45:35;;;;;;;;;;;;;;;;;;5037618;28;8389;-84
2022/10/25 12:48:27;;;;;;;;;;;;;;;;;;5037130;28;8378;-82
2022/10/25 12:51:04;;;;;;;;;;;;;;;;;;5036597;28;8746;-80
2022/10/25 12:53:47;;;;;;;;;;;;;;;;;;5037103;28;8755;-80
2022/10/25 12:56:32;;;;;;;;;;;;;;;;;;5025340;28;7041;-82
2022/10/25 12:59:08;;;;;;;;;;;;;;;;;;5032312;28;8793;-83
2022/10/25 13:01:53;;;;;;;;;;;;;;;;;;5015140;28;8325;-79
2022/10/25 13:04:21;;;;;;;;;;;;;;;;;;5036135;28;7134;-82
2022/10/25 13:06:50;;;;;;;;;;;;;;;;;;5018346;28;8455;-83
2022/10/25 13:09:18;;;;;;;;;;;;;;;;;;5019617;28;8405;-82
2022/10/25 13:11:47;;;;;;;;;;;;;;;;;;5026123;28;9334;-82
2022/10/25 13:14:17;;;;;;;;;;;;;;;;;;5020813;28;8393;-81
2022/10/25 13:16:43;;;;;;;;;;;;;;;;;;5017593;28;7045;-83
2022/10/25 13:19:26;;;;;;;;;;;;;;;;;;5016591;28;6979;-82
2022/10/25 13:21:51;;;;;;;;;;;;;;;;;;5017514;28;8413;-83
2022/10/25 13:24:37;;;;;;;;;;;;;;;;;;5016568;28;8380;-82
2022/10/25 13:27:12;;;;;;;;;;;;;;;;;;5017537;28;7170;-85
2022/10/25 13:29:58;;;;;;;;;;;;;;;;;;5017310;28;8334;-85
2022/10/25 13:32:24;;;;;;;;;;;;;;;;;;5016794;28;8375;-80
2022/10/25 13:34:49;;;;;;;;;;;;;;;;;;5017108;28;6968;-82
2022/10/25 13:37:30;;;;;;;;;;;;;;;;;;5019370;28;8438;-82
2022/10/25 13:40:02;;;;;;;;;;;;;;;;;;5036671;28;7052;-82
2022/10/25 13:42:31;;;;;;;;;;;;;;;;;;5036642;28;8325;-83
2022/10/25 13:45:05;;;;;;;;;;;;;;;;;;5036367;28;7067;-81
2022/10/25 13:47:42;;;;;;;;;;;;;;;;;;5036827;28;8370;-82
2022/10/25 13:50:29;;;;;;;;;;;;;;;;;;5036639;28;7340;-81
2022/10/25 13:52:54;;;;;;;;;;;;;;;;;;5026082;28;8451;-82
2022/10/25 13:55:22;;;;;;;;;;;;;;;;;;5027749;28;8463;-78
2022/10/25 13:58:00;;;;;;;;;;;;;;;;;;5019440;28;7177;-76
2022/10/25 14:00:31;;;;;;;;;;;;;;;;;;5020109;28;8685;-77
2022/10/25 14:03:09;;;;;;;;;;;;;;;;;;5019693;28;8739;-77
2022/10/25 14:05:52;;;;;;;;;;;;;;;;;;5019741;28;7044;-82
2022/10/25 14:08:26;;;;;;;;;;;;;;;;;;5019563;28;7190;-83
2022/10/25 14:10:52;;;;;;;;;;;;;;;;;;5019619;28;8481;-77
2022/10/25 14:13:41;;;;;;;;;;;;;;;;;;5018445;28;8949;-83
2022/10/25 14:16:16;;;;;;;;;;;;;;;;;;5018929;28;8846;-83
2022/10/25 14:18:43;;;;;;;;;;;;;;;;;;5019450;28;7446;-82
2022/10/25 14:21:10;;;;;;;;;;;;;;;;;;5019574;28;7163;-80
2022/10/25 14:23:37;;;;;;;;;;;;;;;;;;5019832;28;8713;-83
2022/10/25 14:26:12;;;;;;;;;;;;;;;;;;5019277;28;8408;-82
2022/10/25 14:28:37;;;;;;;;;;;;;;;;;;5018873;28;8370;-81
2022/10/25 14:31:10;;;;;;;;;;;;;;;;;;5018350;28;8451;-79
2022/10/25 14:33:41;;;;;;;;;;;;;;;;;;5019412;28;8441;-83
2022/10/25 14:36:25;;;;;;;;;;;;;;;;;;5019598;28;9872;-81
2022/10/25 14:38:59;;;;;;;;;;;;;;;;;;5019196;28;8390;-80
2022/10/25 14:41:26;;;;;;;;;;;;;;;;;;5019313;28;6914;-82
2022/10/25 14:43:52;;;;;;;;;;;;;;;;;;5019192;28;7060;-82
2022/10/25 14:46:20;;;;;;;;;;;;;;;;;;5019095;28;7293;-82
2022/10/25 14:48:47;;;;;;;;;;;;;;;;;;5018748;28;6838;-83
2022/10/25 14:51:20;;;;;;;;;;;;;;;;;;5019185;28;7469;-81
2022/10/25 14:54:04;;;;;;;;;;;;;;;;;;5012040;28;8769;-80
2022/10/25 14:56:47;;;;;;;;;;;;;;;;;;5035382;28;9430;-83
2022/10/25 14:59:28;;;;;;;;;;;;;;;;;;5015241;28;7187;-79
2022/10/25 15:02:05;;;;;;;;;;;;;;;;;;5010482;28;7082;-81
2022/10/25 15:04:38;;;;;;;;;;;;;;;;;;5014318;28;7197;-76
2022/10/25 15:07:06;;;;;;;;;;;;;;;;;;5030363;28;8478;-81
2022/10/25 15:09:32;;;;;;;;;;;;;;;;;;5031572;28;8427;-80
2022/10/25 15:12:06;;;;;;;;;;;;;;;;;;5019774;28;8852;-81
2022/10/25 15:14:32;;;;;;;;;;;;;;;;;;5015159;28;7006;-83
2022/10/25 15:17:14;;;;;;;;;;;;;;;;;;5017209;28;8463;-81
2022/10/25 15:19:58;;;;;;;;;;;;;;;;;;5000692;28;8797;-81
2022/10/25 15:22:44;;;;;;;;;;;;;;;;;;5022652;28;7261;-83
2022/10/25 15:25:21;;;;;;;;;;;;;;;;;;5043718;28;7011;-81
2022/10/25 15:27:48;;;;;;;;;;;;;;;;;;5041684;28;7130;-82
2022/10/25 15:30:32;;;;;;;;;;;;;;;;;;5041783;28;7357;-79
2022/10/25 15:32:58;;;;;;;;;;;;;;;;;;5056708;28;7280;-79
2022/10/25 15:35:25;;;;;;;;;;;;;;;;;;5042153;28;8291;-84
2022/10/25 15:37:51;;;;;;;;;;;;;;;;;;5041364;28;8520;-83
2022/10/25 15:40:17;;;;;;;;;;;;;;;;;;5041347;28;8326;-86
2022/10/25 15:42:43;;;;;;;;;;;;;;;;;;5042687;28;7045;-81
2022/10/25 15:45:12;;;;;;;;;;;;;;;;;;5040759;28;8668;-76
2022/10/25 15:47:41;;;;;;;;;;;;;;;;;;5042355;28;7178;-79
2022/10/25 15:50:13;;;;;;;;;;;;;;;;;;5043790;28;7219;-84
2022/10/25 15:52:39;;;;;;;;;;;;;;;;;;5030282;28;7209;-78
2022/10/25 15:55:16;;;;;;;;;;;;;;;;;;5028750;28;7245;-82
2022/10/25 15:57:41;;;;;;;;;;;;;;;;;;5037975;28;8478;-76
2022/10/25 16:00:07;;;;;;;;;;;;;;;;;;5041584;28;7143;-81
2022/10/25 16:02:33;;;;;;;;;;;;;;;;;;5028117;28;6887;-80
2022/10/25 16:04:59;;;;;;;;;;;;;;;;;;5013006;28;7235;-78
2022/10/25 16:07:24;;;;;;;;;;;;;;;;;;5017368;28;7011;-82
2022/10/25 16:09:50;;;;;;;;;;;;;;;;;;5024425;28;7209;-77
2022/10/25 16:12:20;;;;;;;;;;;;;;;;;;5020285;28;7151;-83
2022/10/25 16:14:46;;;;;;;;;;;;;;;;;;4997658;28;8411;-81
2022/10/25 16:17:12;;;;;;;;;;;;;;;;;;5018112;28;8556;-83
2022/10/25 16:19:38;;;;;;;;;;;;;;;;;;5017337;28;8567;-81
2022/10/25 16:22:03;;;;;;;;;;;;;;;;;;4997352;28;7324;-82
2022/10/25 16:24:28;;;;;;;;;;;;;;;;;;5007133;28;6962;-82
2022/10/25 16:26:54;;;;;;;;;;;;;;;;;;5013966;28;7006;-83
2022/10/25 16:29:24;;;;;;;;;;;;;;;;;;5017475;28;7399;-83
2022/10/25 16:31:50;;;;;;;;;;;;;;;;;;5012796;28;8512;-80
2022/10/25 16:34:18;;;;;;;;;;;;;;;;;;4996816;28;8490;-83
2022/10/25 16:36:47;;;;;;;;;;;;;;;;;;4997186;28;6976;-82
2022/10/25 16:39:14;;;;;;;;;;;;;;;;;;4997535;28;8611;-81
2022/10/25 16:41:41;;;;;;;;;;;;;;;;;;4997743;28;8841;-81
2022/10/25 16:44:08;;;;;;;;;;;;;;;;;;5029180;28;8401;-82
2022/10/25 16:46:33;;;;;;;;;;;;;;;;;;5036437;28;9490;-83
2022/10/25 16:48:59;;;;;;;;;;;;;;;;;;5036793;28;8515;-81
2022/10/25 16:51:24;;;;;;;;;;;;;;;;;;5036575;28;7142;-83
2022/10/25 16:53:50;;;;;;;;;;;;;;;;;;5036712;28;7009;-81
2022/10/25 16:56:17;;;;;;;;;;;;;;;;;;5034761;28;7034;-83
2022/10/25 16:58:42;;;;;;;;;;;;;;;;;;5036737;28;8847;-81
2022/10/25 17:01:28;;;;;;;;;;;;;;;;;;5038129;28;8406;-81
2022/10/25 17:03:54;;;;;;;;;;;;;;;;;;5035077;28;8496;-81
2022/10/25 17:06:20;;;;;;;;;;;;;;;;;;5030879;28;8409;-80
2022/10/25 17:08:46;;;;;;;;;;;;;;;;;;5035280;28;6849;-81
2022/10/25 17:11:12;;;;;;;;;;;;;;;;;;5039205;28;8492;-83
2022/10/25 17:13:38;;;;;;;;;;;;;;;;;;5036972;28;8341;-82
2022/10/25 17:16:07;;;;;;;;;;;;;;;;;;5037398;28;8331;-83
2022/10/25 17:18:33;;;;;;;;;;;;;;;;;;5036352;28;8770;-81